OGL weather

Eugene F. Correira International Airport
Ogle, Demerara-Mahaica, Guyana

Public forecast

Using degrees Celsius for public forecast. Weather courtesy of forecast.io.

METAR (pilot weather report)

Report is more than 6 hours old.

Retrieved 2016/07/13 00:00 UTC (3 years ago):

SYGO 130000Z 04008KT 9999 BKN020 SCT300 28/24 Q1016 NOSIG

TAF (pilot weather forecast)

Forecast is more than 12 hours old.

Retrieved 2016/06/26 00:21 UTC (3 years ago):

TAF SYGO 262321Z 2700/2724 06008KT 9999 BKN015 SCT090 TEMPO 2709/2713 7000 SHRA BKN012 BKN038